Latest Weather Observations for Inverell RS

IDN60801

Issued at 11:32 pm EST Monday 26 June 2017 (issued every 30 minutes, with the page automatically refreshed every 10 minutes)

About weather observations | Map of weather stations | Latest weather observations for NSW | Other Formats
Station Details ID: 056018 Name: INVERELL RESEARCH CENTRE Lat: -29.78 Lon: 151.08 Height: 664.0 m
Data from the previous 72 hours. | See also: Recent months at Inverell RS
Date/Time
EST
Temp
°C
App
Temp
°C
Dew
Point
°C
Rel
Hum
%
Delta-T
°C
Wind Press
QNH
hPa
Press
MSL
hPa
Rain since
9am
mm
Dir  Spd
km/h
Gust
km/h
Spd
kts
Gust
kts
26/11:30pm 6.8 5.4 3.6 80 1.4 CALM 0 2 0 1 1024.4 - 0.0
26/11:00pm 6.7 5.3 3.5 80 1.4 CALM 0 2 0 1 1024.6 - 0.0
26/10:30pm 8.1 6.7 3.6 73 2.0 CALM 0 6 0 3 1024.4 - 0.0
26/10:00pm 7.9 6.1 3.4 73 2.0 NNE 2 7 1 4 1024.4 - 0.0
26/09:30pm 8.0 6.2 3.5 73 2.0 N 2 7 1 4 1024.4 - 0.0
26/09:00pm 7.4 5.6 3.3 75 1.8 S 2 6 1 3 1024.1 1024.4 0.0
26/08:30pm 8.4 6.2 3.2 70 2.3 NNW 4 7 2 4 1024.3 - 0.0
26/08:00pm 12.1 9.3 2.3 51 4.4 W 6 9 3 5 1023.9 - 0.0
26/07:30pm 12.2 9.8 2.1 50 4.5 W 4 7 2 4 1023.4 - 0.0
26/07:00pm 12.7 11.1 2.5 50 4.6 CALM 0 6 0 3 1023.2 - 0.0
26/06:30pm 11.8 9.6 3.5 57 3.8 W 4 6 2 3 1022.9 - 0.0
26/06:00pm 12.4 9.8 3.2 53 4.2 W 6 7 3 4 1022.6 1022.9 0.0
26/05:30pm 11.9 9.3 3.4 56 3.9 W 6 7 3 4 1022.3 - 0.0
26/05:00pm 13.8 11.6 3.2 48 4.9 W 4 7 2 4 1022.2 - 0.0
26/04:30pm 15.6 12.7 2.7 42 6.0 WNW 7 13 4 7 1022.3 - 0.0
26/04:00pm 17.2 13.8 1.9 35 7.1 W 9 13 5 7 1021.8 - 0.0
26/03:30pm 17.3 14.3 1.1 33 7.4 WSW 6 15 3 8 1021.7 - 0.0
26/03:00pm 18.3 14.7 0.8 31 8.0 W 9 15 5 8 1021.7 1021.9 0.0
26/02:30pm 18.0 14.5 1.0 32 7.8 W 9 15 5 8 1021.5 - 0.0
26/02:00pm 18.6 15.0 0.3 29 8.3 WNW 9 17 5 9 1021.5 - 0.0
26/01:30pm 18.4 13.9 0.0 29 8.3 W 13 22 7 12 1021.5 - 0.0
26/01:00pm 18.3 14.1 -0.6 28 8.4 W 11 20 6 11 1021.7 - 0.0
26/12:30pm 18.7 15.1 0.5 29 8.3 WSW 9 17 5 9 1021.8 - 0.0
26/12:00pm 17.6 14.0 0.9 32 7.6 SW 9 15 5 8 1022.0 1022.4 0.0
26/11:30am 17.7 14.8 2.7 36 7.1 NW 7 15 4 8 1022.4 - 0.0
26/11:00am 16.3 13.4 4.8 46 5.6 ENE 9 11 5 6 1022.9 - 0.0
26/10:30am 14.9 12.7 5.3 52 4.7 ENE 6 11 3 6 1023.2 - 0.0
26/10:00am 14.5 12.7 5.5 54 4.4 ENE 4 9 2 5 1023.3 - 0.0
26/09:30am 12.7 11.6 5.2 60 3.6 CALM 0 0 0 0 1023.2 - 0.0
26/09:00am 10.2 7.9 4.8 69 2.5 E 6 7 3 4 1023.1 1023.4 0.0
26/08:30am 9.5 8.2 4.0 68 2.5 CALM 0 0 0 0 1022.7 - 0.0
26/08:00am 8.5 7.3 4.6 76 1.8 CALM 0 0 0 0 1022.4 - 0.0
26/07:30am 5.6 4.2 3.8 88 0.8 CALM 0 0 0 0 1022.0 - 0.0
26/07:00am 4.7 2.9 3.5 92 0.5 SSE 2 7 1 4 1021.7 - 0.0
26/06:30am 4.6 1.8 3.4 92 0.5 N 7 9 4 5 1021.2 - 0.0
26/06:00am 5.0 3.6 3.6 91 0.6 CALM 0 0 0 0 1021.1 1021.3 0.0
26/05:30am 5.8 4.4 3.7 86 0.9 CALM 0 6 0 3 1020.9 - 0.0
26/05:00am 5.2 3.8 3.8 91 0.6 CALM 0 0 0 0 1020.6 - 0.0
26/04:30am 4.9 3.5 3.8 93 0.5 CALM 0 0 0 0 1020.6 - 0.0
26/04:00am 5.6 4.3 4.0 89 0.7 CALM 0 0 0 0 1020.4 - 0.0
26/03:30am 5.2 3.9 4.1 93 0.5 CALM 0 6 0 3 1020.4 - 0.0
26/03:00am 5.2 3.9 4.1 93 0.5 CALM 0 0 0 0 1020.6 1021.0 0.0
26/02:30am 6.6 5.4 4.6 87 0.9 CALM 0 2 0 1 1020.6 - 0.0
26/02:00am 5.8 4.1 4.2 89 0.7 N 2 7 1 4 1020.7 - 0.0
26/01:30am 5.8 4.6 4.5 91 0.6 CALM 0 0 0 0 1020.8 - 0.0
26/01:00am 6.3 4.7 4.7 89 0.7 SE 2 7 1 4 1020.8 - 0.0
26/12:30am 6.9 5.8 4.9 87 0.9 CALM 0 0 0 0 1020.9 - 0.0
26/12:00am 7.3 5.0 4.9 85 1.1 NNE 6 7 3 4 1020.9 1021.1 0.0
 
Date/Time
EST
Temp
°C
App
Temp
°C
Dew
Point
°C
Rel
Hum
%
Delta-T
°C
Wind Press
QNH
hPa
Press
MSL
hPa
Rain since
9am
mm
Dir  Spd
km/h
Gust
km/h
Spd
kts
Gust
kts
25/11:30pm 8.7 6.9 5.3 79 1.6 ESE 4 7 2 4 1021.0 - 0.0
25/11:00pm 9.4 8.0 5.4 76 1.9 SE 2 7 1 4 1021.3 - 0.0
25/10:30pm 9.2 7.0 5.4 77 1.8 NNE 6 9 3 5 1021.3 - 0.0
25/10:00pm 9.1 7.7 5.5 78 1.7 NNE 2 6 1 3 1021.0 - 0.0
25/09:30pm 9.2 8.2 5.4 77 1.8 CALM 0 0 0 0 1020.8 - 0.0
25/09:00pm 9.3 8.2 5.0 74 2.0 CALM 0 0 0 0 1020.8 1021.1 0.0
25/08:30pm 10.6 8.4 5.3 70 2.5 SW 6 7 3 4 1020.7 - 0.0
25/08:00pm 11.7 9.3 5.2 64 3.1 WSW 7 9 4 5 1020.4 - 0.0
25/07:30pm 12.5 9.8 5.4 62 3.4 SW 9 11 5 6 1020.6 - 0.0
25/07:00pm 12.6 9.8 5.3 61 3.5 SW 9 11 5 6 1020.3 - 0.0
25/06:30pm 12.5 9.7 5.2 61 3.5 SW 9 11 5 6 1019.9 - 0.0
25/06:00pm 13.6 10.8 5.1 56 4.1 SW 9 11 5 6 1019.7 1019.9 0.0
25/05:30pm 13.9 11.4 4.5 53 4.5 SW 7 9 4 5 1019.5 - 0.0
25/05:00pm 15.0 12.4 4.4 49 5.1 W 7 9 4 5 1019.3 - 0.0
25/04:30pm 16.0 13.4 4.2 45 5.7 W 7 11 4 6 1019.2 - 0.0
25/04:00pm 17.5 14.3 3.3 38 6.8 W 9 13 5 7 1018.8 - 0.0
25/03:30pm 17.6 15.0 4.3 41 6.5 W 7 13 4 7 1018.6 - 0.0
25/03:00pm 18.0 15.4 4.1 39 6.8 SSW 7 13 4 7 1018.6 1018.9 0.0
25/02:30pm 18.6 15.4 3.3 36 7.4 W 9 17 5 9 1018.7 - 0.0
25/02:00pm 17.9 15.4 4.8 42 6.5 SSW 7 11 4 6 1019.0 - 0.0
25/01:30pm 17.2 13.9 4.3 42 6.3 WSW 11 15 6 8 1019.1 - 0.0
25/01:00pm 17.7 14.7 3.9 40 6.7 WSW 9 17 5 9 1019.4 - 0.0
25/12:30pm 17.4 14.4 4.3 42 6.4 SSE 9 15 5 8 1019.8 - 0.0
25/12:00pm 16.6 13.0 2.8 39 6.5 SW 11 17 6 9 1020.1 1020.5 0.0
25/11:30am 17.6 15.1 4.0 40 6.6 W 6 15 3 8 1020.6 - 0.0
25/11:00am 15.9 14.0 4.8 47 5.4 SSE 4 9 2 5 1021.1 - 0.0
25/10:30am 14.7 13.2 5.0 52 4.7 E 2 7 1 4 1021.4 - 0.0
25/10:00am 13.9 12.2 3.9 51 4.7 ENE 2 7 1 4 1021.6 - 0.0
25/09:30am 12.6 10.8 5.6 62 3.4 E 4 7 2 4 1021.8 - 0.0
25/09:00am 10.6 10.0 7.4 80 1.6 CALM 0 2 0 1 1021.7 1022.1 0.0
25/08:30am 9.1 8.1 5.7 79 1.6 CALM 0 0 0 0 1021.4 - 0.0
25/08:00am 7.9 7.0 6.2 89 0.8 CALM 0 4 0 2 1021.0 - 0.0
25/07:30am 7.4 6.2 4.5 82 1.3 CALM 0 0 0 0 1020.8 - 0.0
25/07:00am 6.9 5.6 4.0 82 1.3 CALM 0 0 0 0 1020.6 - 0.0
25/06:30am 6.2 4.0 3.2 81 1.3 E 4 7 2 4 1020.4 - 0.0
25/06:00am 5.6 4.2 3.3 85 1.0 CALM 0 6 0 3 1020.0 1020.2 0.0
25/05:30am 5.3 3.8 3.2 86 0.9 CALM 0 0 0 0 1019.8 - 0.0
25/05:00am 5.8 4.4 3.3 84 1.1 CALM 0 0 0 0 1019.4 - 0.0
25/04:30am 6.9 5.5 3.5 79 1.5 CALM 0 2 0 1 1019.4 - 0.0
25/04:00am 6.3 4.8 3.1 80 1.4 CALM 0 0 0 0 1019.1 - 0.0
25/03:30am 5.5 3.3 3.2 85 1.0 NE 4 7 2 4 1019.4 - 0.0
25/03:00am 5.4 2.6 3.3 86 0.9 ENE 7 9 4 5 1019.2 1019.5 0.0
25/02:30am 5.6 4.2 3.3 85 1.0 CALM 0 0 0 0 1019.4 - 0.0
25/02:00am 6.7 5.3 3.3 79 1.5 CALM 0 0 0 0 1019.6 - 0.0
25/01:30am 6.5 4.7 3.5 81 1.3 S 2 7 1 4 1019.8 - 0.0
25/01:00am 6.4 4.2 3.4 81 1.3 S 4 7 2 4 1019.7 - 0.0
25/12:30am 6.3 4.9 3.8 84 1.1 CALM 0 0 0 0 1019.6 - 0.0
25/12:00am 7.9 6.5 3.6 74 1.9 CALM 0 6 0 3 1019.8 1020.1 0.0
 
Date/Time
EST
Temp
°C
App
Temp
°C
Dew
Point
°C
Rel
Hum
%
Delta-T
°C
Wind Press
QNH
hPa
Press
MSL
hPa
Rain since
9am
mm
Dir  Spd
km/h
Gust
km/h
Spd
kts
Gust
kts
24/11:30pm 8.0 5.5 3.8 75 1.9 ENE 6 7 3 4 1020.2 - 0.0
24/11:00pm 7.9 5.2 3.6 74 1.9 ENE 7 9 4 5 1020.2 - 0.0
24/10:30pm 8.4 7.1 4.0 74 2.0 CALM 0 0 0 0 1020.0 - 0.0
24/10:00pm 8.4 6.3 4.0 74 2.0 ESE 4 7 2 4 1020.1 - 0.0
24/09:30pm 8.2 6.9 4.0 75 1.9 CALM 0 0 0 0 1020.3 - 0.0
24/09:00pm 8.5 7.2 4.1 74 2.0 CALM 0 0 0 0 1019.9 1020.2 0.0
24/08:30pm 9.4 7.0 4.2 70 2.4 S 6 7 3 4 1019.6 - 0.0
24/08:00pm 10.9 7.9 4.0 62 3.2 SSW 9 11 5 6 1019.5 - 0.0
24/07:30pm 10.9 8.5 4.5 64 3.0 SSW 6 7 3 4 1019.5 - 0.0
24/07:00pm 10.9 9.6 4.2 63 3.1 CALM 0 0 0 0 1019.4 - 0.0
24/06:30pm 11.7 9.1 4.2 60 3.5 WSW 7 9 4 5 1019.1 - 0.0
24/06:00pm 12.2 9.6 4.1 57 3.8 WSW 7 9 4 5 1018.8 1019.1 0.0
24/05:30pm 12.7 10.0 3.9 55 4.1 SW 7 9 4 5 1018.7 - 0.0
24/05:00pm 13.6 12.3 4.3 53 4.4 CALM 0 0 0 0 1018.4 - 0.0
24/04:30pm 15.0 12.2 3.3 45 5.5 SSE 7 11 4 6 1018.2 - 0.0
24/04:00pm 16.0 12.8 2.8 41 6.2 S 9 13 5 7 1018.1 - 0.0
24/03:30pm 16.4 13.2 2.8 40 6.4 S 9 15 5 8 1017.9 - 0.0
24/03:00pm 17.0 13.5 3.4 40 6.5 S 11 17 6 9 1018.0 1018.3 0.0
24/02:30pm 17.1 12.6 2.4 37 6.9 SSE 15 28 8 15 1018.0 - 0.0
24/02:00pm 17.1 12.9 1.8 35 7.1 S 13 24 7 13 1017.9 - 0.0
24/01:30pm 17.1 13.0 2.1 36 7.0 S 13 20 7 11 1017.9 - 0.0
24/01:00pm 16.8 13.6 2.8 39 6.6 S 9 20 5 11 1018.1 - 0.0
24/12:30pm 16.3 12.7 2.9 40 6.3 SSW 11 19 6 10 1018.4 - 0.0
24/12:00pm 16.3 12.3 2.6 39 6.4 S 13 19 7 10 1019.0 1019.2 0.0
24/11:30am 15.6 11.3 1.2 37 6.5 SSW 13 24 7 13 1019.4 - 0.0
24/11:00am 15.9 12.1 2.0 39 6.4 S 11 19 6 10 1019.7 - 0.0
24/10:30am 15.1 12.0 3.4 45 5.5 S 9 15 5 8 1019.8 - 0.0
24/10:00am 14.1 11.7 4.5 52 4.6 SW 6 13 3 7 1020.2 - 0.0
24/09:30am 13.0 10.5 4.6 56 4.0 W 7 13 4 7 1020.2 - 0.0
24/09:00am 10.2 9.5 6.9 80 1.6 CALM 0 0 0 0 1020.1 1020.4 0.0
24/08:30am 7.5 6.0 4.9 83 1.2 SSE 2 7 1 4 1019.7 - 0.0
24/08:00am 4.5 3.1 3.8 95 0.3 CALM 0 0 0 0 1019.6 - 0.0
24/07:30am 3.9 2.4 3.2 95 0.3 CALM 0 0 0 0 1019.3 - 0.0
24/07:00am 4.3 2.1 3.4 94 0.4 SW 4 7 2 4 1019.1 - 0.0
24/06:30am 3.9 2.4 3.2 95 0.3 CALM 0 6 0 3 1018.7 - 0.0
24/06:00am 3.9 2.4 3.2 95 0.3 CALM 0 0 0 0 1018.4 1018.7 0.0
24/05:30am 4.2 2.8 3.5 95 0.3 CALM 0 0 0 0 1018.2 - 0.0
24/05:00am 4.1 2.7 3.4 95 0.3 CALM 0 0 0 0 1018.1 - 0.0
24/04:30am 4.4 3.0 3.5 94 0.4 CALM 0 0 0 0 1018.0 - 0.0
24/04:00am 4.9 3.5 3.8 93 0.5 CALM 0 0 0 0 1017.8 - 0.0
24/03:30am 5.4 4.1 4.3 93 0.5 CALM 0 0 0 0 1018.1 - 0.0
24/03:00am 6.2 3.6 4.2 87 0.9 NNE 7 9 4 5 1018.2 1018.5 0.0
24/02:30am 5.9 3.3 4.3 89 0.7 E 7 9 4 5 1018.3 - 0.0
24/02:00am 5.6 4.4 4.5 93 0.5 CALM 0 0 0 0 1018.3 - 0.0
24/01:30am 6.3 5.1 4.8 90 0.7 CALM 0 0 0 0 1018.5 - 0.0
24/01:00am 6.6 4.3 4.6 87 0.9 NE 6 7 3 4 1018.7 - 0.0
24/12:30am 6.0 4.1 4.7 91 0.6 SE 4 9 2 5 1019.0 - 0.0
24/12:00am 6.5 5.3 4.5 87 0.9 CALM 0 0 0 0 1019.2 1019.5 0.0

Other Formats:

Comma delimited format used in spreadsheet applications
http://www.bom.gov.au/fwo/IDN60801/IDN60801.94541.axf

JavaScript Object Notation format (JSON) in row-major order
http://www.bom.gov.au/fwo/IDN60801/IDN60801.94541.json